Nearby METAR Reports

 

KEVV - Evansville, Indiana, USA
Distance from station: NNE 4mi, 7km
Updated: Thu, 23-Sep-2021 9:54am CDT
Clear
Clear
 Wind from W
Wind: W 7 mph , 11 km/h, Gust: 18 mph , 30 km/h
Temperature: 61°F , 16°C
Dew Point: 46°F , 8°C
Humidity: 59%
Barometer: 30.09 inHg , 1019 hPa
Clouds: Clear
Visibility: 10 miles , 16 km
2021/09/23 14:54 KEVV 231454Z 28006G16KT 10SM CLR 16/08 A3009 RMK AO2 SLP187 T01560083 51009 $
KEHR - Henderson City, Kentucky, USA
Distance from station: SSW 14mi, 22km
Updated: Thu, 23-Sep-2021 10:04am CDT
Clear
Clear
 Wind from W
Wind: W 13 mph , 20 km/h
Temperature: 61°F , 16°C
Dew Point: 50°F , 10°C
Humidity: 68%
Barometer: 30.10 inHg , 1019.3 hPa
Clouds: Clear
Visibility: 10 miles , 16 km
2021/09/23 15:04 KEHR 231504Z AUTO 28011KT 10SM CLR 16/10 A3010 RMK AO2
 
KOWB - Owensboro/Davies, Kentucky, USA
Distance from station: SE 29mi, 46km
Updated: Thu, 23-Sep-2021 9:56am CDT
Clear
Clear
 Wind from NW
Wind: NW 14 mph , 22 km/h
Temperature: 61°F , 16°C
Dew Point: 48°F , 9°C
Humidity: 63%
Barometer: 30.09 inHg , 1019 hPa
Clouds: Clear
Visibility: 10 miles , 16 km
2021/09/23 14:56 KOWB 231456Z 31012KT 10SM CLR 16/09 A3009 RMK AO2 SLP187 T01560089 51010
KCUL - Carmi Muni, Illinois, USA
Distance from station: W 31mi, 50km
Updated: Thu, 23-Sep-2021 9:54am CDT
Clear
Clear
 
Temperature: 63°F , 17°C
Dew Point: 48°F , 9°C
Humidity: 59%
Barometer: 30.09 inHg , 1019 hPa
Clouds: Clear
Visibility: 10 miles , 16 km
2021/09/23 14:54 KCUL 231454Z AUTO 10SM CLR 17/09 A3009 RMK AO2
 
KHNB - Huntingburg, Indiana, USA
Distance from station: ENE 37mi, 60km
Updated: Thu, 23-Sep-2021 9:56am CDT
Clear
Clear
 Wind from W
Wind: W 10 mph , 17 km/h
Temperature: 59°F , 15°C
Dew Point: 48°F , 9°C
Humidity: 68%
Barometer: 30.07 inHg , 1018.3 hPa
Clouds: Clear
Visibility: 10 miles , 16 km
2021/09/23 14:56 KHNB 231456Z AUTO 28009KT 10SM CLR 15/09 A3007 RMK AO2 SLP180 T01500094 51008
KKY8 - Lewisport, Kentucky, USA
Distance from station: E 39mi, 62km
Updated: Thu, 23-Sep-2021 9:55am CDT
Clear
Clear
 Wind from WSW
Wind: WSW 9 mph , 15 km/h
Temperature: 59°F , 15°C
Dew Point: 54°F , 12°C
Humidity: 82%
Barometer: 30.07 inHg , 1018.3 hPa
Clouds: Clear
Visibility: 10 miles , 16 km
2021/09/23 14:55 KKY8 231455Z AUTO 24008KT 220V280 10SM CLR 15/12 A3007 RMK A01
 
KAJG - Mount Carmel, Illinois, USA
Distance from station: NNW 44mi, 71km
Updated: Thu, 23-Sep-2021 9:55am CDT
Clear
Clear
 Wind from WNW
Wind: WNW 13 mph , 20 km/h, Gust: 20 mph , 31 km/h
Temperature: 63°F , 17°C
Dew Point: 48°F , 9°C
Humidity: 59%
Barometer: 30.07 inHg , 1018.3 hPa
Clouds: Clear
Visibility: 10 miles , 16 km
2021/09/23 14:55 KAJG 231455Z AUTO 30011G17KT 10SM CLR 17/09 A3007 RMK AO2 60001 T01650094
K2I0 - Madisonville, Kentucky, USA
Distance from station: S 45mi, 73km
Updated: Thu, 23-Sep-2021 9:55am CDT
Clear
Clear
 Wind from calm
Wind: Calm
Temperature: 64°F , 18°C
Dew Point: 45°F , 7°C
Humidity: 49%
Barometer: 30.11 inHg , 1019.6 hPa
Clouds: Clear
Visibility: 10 miles , 16 km
2021/09/23 14:55 K2I0 231455Z AUTO 00000KT 10SM CLR 18/07 A3011 RMK AO2 T01750074
Flag Counter